createdAt,value
2018-05-11T00:01:23.751Z,16.34
2018-05-11T00:03:00.731Z,16.43
2018-05-11T00:04:37.389Z,16.48
2018-05-11T00:06:14.117Z,16.66
2018-05-11T00:07:51.849Z,16.70
2018-05-11T00:09:28.346Z,16.74
2018-05-11T00:11:05.687Z,16.77
2018-05-11T00:12:42.544Z,16.79
2018-05-11T00:14:18.904Z,16.77
2018-05-11T00:15:55.541Z,16.70
2018-05-11T00:17:31.827Z,16.61
2018-05-11T00:19:08.175Z,16.72
2018-05-11T00:20:44.461Z,16.71
2018-05-11T00:22:21.601Z,16.77
2018-05-11T00:23:59.092Z,16.82
2018-05-11T00:25:35.408Z,16.82
2018-05-11T00:27:12.554Z,16.80
2018-05-11T00:28:49.686Z,16.78
2018-05-11T00:30:26.757Z,16.62
2018-05-11T00:32:03.980Z,16.60
2018-05-11T00:33:40.341Z,16.51
2018-05-11T00:35:16.626Z,16.60
2018-05-11T00:36:53.765Z,16.61
2018-05-11T00:38:30.087Z,16.67
2018-05-11T00:40:06.422Z,16.67
2018-05-11T00:41:42.726Z,16.68
2018-05-11T00:43:19.478Z,16.62
2018-05-11T00:44:55.756Z,16.50
2018-05-11T00:46:32.262Z,16.51
2018-05-11T00:48:08.504Z,16.45
2018-05-11T00:49:46.207Z,16.44
2018-05-11T00:51:22.430Z,16.46
2018-05-11T00:52:59.817Z,16.40
2018-05-11T00:54:36.098Z,16.53
2018-05-11T00:56:12.725Z,16.62
2018-05-11T00:57:49.052Z,16.55
2018-05-11T00:59:25.460Z,16.63
2018-05-11T01:01:01.877Z,16.64
2018-05-11T01:02:38.477Z,16.67
2018-05-11T01:04:15.804Z,16.55
2018-05-11T01:05:52.042Z,16.53
2018-05-11T01:07:29.213Z,16.51
2018-05-11T01:09:07.023Z,16.48
2018-05-11T01:10:43.333Z,16.49
2018-05-11T01:12:19.597Z,16.49
2018-05-11T01:13:55.840Z,16.44
2018-05-11T01:15:32.873Z,16.52
2018-05-11T01:17:09.083Z,16.52
2018-05-11T01:18:45.383Z,16.47
2018-05-11T01:20:21.750Z,16.44
2018-05-11T01:21:58.466Z,16.40
2018-05-11T01:23:34.704Z,16.39
2018-05-11T01:25:11.038Z,16.39
2018-05-11T01:26:47.333Z,16.25
2018-05-11T01:28:24.936Z,16.12
2018-05-11T01:30:01.222Z,16.04
2018-05-11T01:31:40.128Z,15.97
2018-05-11T01:33:17.357Z,15.92
2018-05-11T01:34:53.974Z,15.96
2018-05-11T01:36:30.377Z,15.94
2018-05-11T01:38:10.342Z,15.84
2018-05-11T01:39:47.662Z,15.77
2018-05-11T01:41:24.453Z,15.78
2018-05-11T01:43:01.814Z,15.78
2018-05-11T01:44:38.370Z,15.82
2018-05-11T01:46:14.965Z,15.85
2018-05-11T01:47:52.448Z,15.88
2018-05-11T01:49:29.563Z,15.96
2018-05-11T01:51:05.914Z,16.00
2018-05-11T01:52:42.159Z,16.05
2018-05-11T01:54:19.668Z,16.09
2018-05-11T01:55:56.059Z,16.09
2018-05-11T01:57:32.509Z,16.07
2018-05-11T01:59:08.822Z,16.13
2018-05-11T02:00:45.703Z,16.23
2018-05-11T02:03:57.970Z,16.11
2018-05-11T02:05:34.277Z,16.11
2018-05-11T02:07:10.826Z,16.14
2018-05-11T02:08:48.239Z,16.12
2018-05-11T02:10:24.572Z,16.08
2018-05-11T02:12:00.947Z,16.01
2018-05-11T02:13:37.951Z,15.55
2018-05-11T02:15:15.997Z,15.60
2018-05-11T02:16:53.090Z,15.86
2018-05-11T02:18:29.451Z,16.00
2018-05-11T02:20:06.201Z,16.14
2018-05-11T02:21:42.835Z,15.98
2018-05-11T02:23:19.977Z,15.64
2018-05-11T02:24:56.947Z,15.44
2018-05-11T02:26:34.453Z,15.29
2018-05-11T02:28:11.734Z,15.17
2018-05-11T02:29:48.755Z,15.13
2018-05-11T02:31:25.422Z,15.18
2018-05-11T02:33:01.703Z,15.22
2018-05-11T02:34:37.999Z,15.26
2018-05-11T02:36:14.480Z,15.28
2018-05-11T02:37:50.790Z,15.26
2018-05-11T02:39:28.341Z,15.30
2018-05-11T02:41:04.685Z,15.33
2018-05-11T02:44:22.899Z,15.30
2018-05-11T02:45:59.710Z,15.32
2018-05-11T02:47:36.968Z,15.28
2018-05-11T02:49:13.281Z,15.22
2018-05-11T02:50:49.629Z,15.28
2018-05-11T02:52:26.421Z,15.22
2018-05-11T02:54:02.825Z,15.26
2018-05-11T02:55:39.898Z,15.23
2018-05-11T02:57:16.113Z,15.25
2018-05-11T02:58:52.757Z,15.29
2018-05-11T03:00:29.488Z,15.31
2018-05-11T03:02:05.765Z,15.33
2018-05-11T03:03:42.910Z,15.32
2018-05-11T03:05:19.657Z,15.37
2018-05-11T03:06:56.742Z,15.34
2018-05-11T03:08:33.391Z,15.31
2018-05-11T03:10:09.881Z,15.24
2018-05-11T03:11:46.782Z,15.11
2018-05-11T03:13:23.014Z,15.12
2018-05-11T03:14:59.306Z,15.23
2018-05-11T03:16:36.593Z,15.27
2018-05-11T03:18:12.927Z,15.25
2018-05-11T03:19:49.285Z,15.27
2018-05-11T03:21:27.252Z,15.20
2018-05-11T03:23:03.612Z,15.29
2018-05-11T03:24:40.404Z,15.29
2018-05-11T03:26:17.739Z,15.34
2018-05-11T03:27:54.910Z,15.42
2018-05-11T03:29:32.072Z,15.34
2018-05-11T03:31:09.041Z,15.35
2018-05-11T03:32:45.649Z,15.23
2018-05-11T03:34:22.805Z,15.09
2018-05-11T03:35:59.650Z,14.94
2018-05-11T03:37:36.458Z,15.12
2018-05-11T03:39:12.749Z,15.19
2018-05-11T03:40:50.535Z,15.32
2018-05-11T03:42:26.819Z,15.32
2018-05-11T03:44:04.319Z,15.24
2018-05-11T03:45:40.796Z,15.18
2018-05-11T03:48:58.374Z,14.99
2018-05-11T03:50:35.723Z,15.08
2018-05-11T03:52:12.021Z,15.08
2018-05-11T03:53:49.017Z,15.18
2018-05-11T03:55:25.260Z,15.16
2018-05-11T03:57:02.982Z,15.04
2018-05-11T03:58:39.262Z,15.06
2018-05-11T04:00:17.499Z,14.99
2018-05-11T04:06:17.623Z,14.94
2018-05-11T04:08:58.609Z,14.99
2018-05-11T04:10:35.307Z,14.95
2018-05-11T04:12:12.424Z,14.68
2018-05-11T04:13:48.687Z,14.70
2018-05-11T04:15:25.132Z,14.71
2018-05-11T04:17:01.855Z,14.63
2018-05-11T04:18:38.239Z,14.55
2018-05-11T04:20:14.805Z,14.73
2018-05-11T04:21:52.050Z,15.01
2018-05-11T04:23:28.949Z,15.06
2018-05-11T04:25:05.428Z,15.19
2018-05-11T04:26:41.647Z,15.19
2018-05-11T04:28:17.982Z,15.30
2018-05-11T04:29:54.824Z,15.40
2018-05-11T04:31:31.448Z,15.72
2018-05-11T04:33:07.783Z,16.00
2018-05-11T04:34:44.919Z,15.99
2018-05-11T04:36:24.142Z,16.03
2018-05-11T04:38:02.450Z,16.14
2018-05-11T04:39:39.774Z,16.05
2018-05-11T04:41:17.113Z,16.00
2018-05-11T04:42:53.354Z,16.02
2018-05-11T04:44:30.558Z,15.64
2018-05-11T04:46:07.436Z,15.85
2018-05-11T04:47:43.677Z,16.02
2018-05-11T04:49:21.654Z,16.26
2018-05-11T04:51:00.854Z,16.65
2018-05-11T04:52:38.578Z,16.78
2018-05-11T04:54:14.897Z,17.05
2018-05-11T04:55:51.673Z,17.23
2018-05-11T04:57:29.081Z,17.41
2018-05-11T04:59:05.417Z,17.75
2018-05-11T05:00:41.856Z,17.97
2018-05-11T05:02:18.191Z,17.98
2018-05-11T05:03:54.532Z,18.10
2018-05-11T05:05:31.672Z,18.14
2018-05-11T05:07:08.006Z,18.13
2018-05-11T05:08:44.994Z,18.27
2018-05-11T05:10:21.951Z,18.41
2018-05-11T05:11:59.038Z,18.62
2018-05-11T05:13:36.277Z,18.72
2018-05-11T05:15:14.211Z,18.72
2018-05-11T05:16:51.206Z,18.79
2018-05-11T05:18:27.546Z,18.91
2018-05-11T05:20:03.805Z,19.02
2018-05-11T05:21:40.656Z,19.06
2018-05-11T05:23:18.745Z,19.02
2018-05-11T05:24:55.002Z,19.14
2018-05-11T05:28:10.566Z,18.63
2018-05-11T05:29:47.003Z,18.33
2018-05-11T05:31:24.637Z,18.26
2018-05-11T05:33:01.062Z,18.49
2018-05-11T05:34:37.930Z,18.56
2018-05-11T05:36:14.376Z,18.50
2018-05-11T05:37:51.605Z,18.46
2018-05-11T05:39:28.351Z,18.66
2018-05-11T05:41:07.972Z,18.42
2018-05-11T05:42:44.575Z,18.14
2018-05-11T05:44:20.914Z,18.29
2018-05-11T05:45:57.491Z,18.20
2018-05-11T05:47:33.867Z,17.97
2018-05-11T05:49:10.161Z,17.83
2018-05-11T05:50:46.705Z,17.93
2018-05-11T05:52:23.078Z,17.99
2018-05-11T05:53:59.405Z,17.86
2018-05-11T05:55:35.853Z,18.22
2018-05-11T05:57:13.062Z,18.61
2018-05-11T05:58:50.961Z,18.77
2018-05-11T06:00:29.393Z,18.95
2018-05-11T06:02:05.691Z,19.23
2018-05-11T06:03:42.074Z,19.38
2018-05-11T06:05:19.558Z,19.53
2018-05-11T06:06:55.869Z,19.58
2018-05-11T06:08:32.177Z,18.39
2018-05-11T06:10:15.721Z,17.29
2018-05-11T06:11:52.513Z,16.60
2018-05-11T06:24:13.303Z,17.44
2018-05-11T06:25:49.694Z,17.87
2018-05-11T06:27:26.003Z,18.19
2018-05-11T06:29:02.915Z,18.29
2018-05-11T06:30:39.534Z,18.10
2018-05-11T06:32:16.659Z,17.09
2018-05-11T06:33:52.946Z,16.90
2018-05-11T06:35:29.896Z,16.80
2018-05-11T06:37:06.697Z,16.85
2018-05-11T06:38:43.876Z,16.87
2018-05-11T06:40:20.273Z,16.78
2018-05-11T06:41:57.055Z,16.83
2018-05-11T06:43:33.330Z,16.60
2018-05-11T06:45:10.031Z,16.62
2018-05-11T06:46:47.790Z,16.49
2018-05-11T06:48:25.383Z,16.34
2018-05-11T06:50:02.386Z,16.32
2018-05-11T06:51:38.758Z,16.52
2018-05-11T06:53:15.040Z,16.58
2018-05-11T06:54:51.952Z,16.57
2018-05-11T06:56:29.410Z,16.59
2018-05-11T06:58:06.107Z,17.01
2018-05-11T06:59:42.522Z,16.98
2018-05-11T07:01:19.509Z,16.94
2018-05-11T07:02:55.792Z,16.58
2018-05-11T07:04:32.045Z,17.19
2018-05-11T07:06:08.393Z,17.67
2018-05-11T07:07:44.780Z,17.86
2018-05-11T07:09:21.012Z,17.66
2018-05-11T07:10:57.403Z,17.96
2018-05-11T07:12:34.491Z,18.61
2018-05-11T07:14:10.858Z,18.00
2018-05-11T07:15:48.266Z,17.21
2018-05-11T07:17:24.760Z,17.27
2018-05-11T07:19:01.716Z,16.96
2018-05-11T07:20:37.989Z,16.97
2018-05-11T07:22:14.318Z,16.96
2018-05-11T07:23:50.710Z,17.40
2018-05-11T07:25:27.538Z,17.41
2018-05-11T07:27:03.953Z,17.38
2018-05-11T07:28:40.598Z,17.60
2018-05-11T07:30:17.353Z,17.81
2018-05-11T07:31:54.145Z,18.45
2018-05-11T07:33:30.507Z,19.39
2018-05-11T07:35:06.870Z,19.95
2018-05-11T07:36:43.200Z,20.43
2018-05-11T07:38:20.613Z,19.44
2018-05-11T07:39:57.069Z,18.57
2018-05-11T07:41:33.448Z,17.61
2018-05-11T07:43:09.888Z,17.62
2018-05-11T07:44:46.562Z,18.01
2018-05-11T07:46:24.120Z,18.07
2018-05-11T07:48:05.118Z,18.72
2018-05-11T07:49:41.721Z,19.30
2018-05-11T07:51:18.550Z,19.63
2018-05-11T07:52:55.644Z,19.86
2018-05-11T07:54:32.016Z,20.04
2018-05-11T07:56:08.476Z,20.37
2018-05-11T07:57:45.308Z,20.52
2018-05-11T07:59:21.677Z,20.55
2018-05-11T08:00:59.299Z,19.90
2018-05-11T08:02:36.774Z,20.13
2018-05-11T08:04:13.529Z,20.12
2018-05-11T08:05:49.921Z,20.34
2018-05-11T08:07:27.008Z,20.62
2018-05-11T08:09:03.893Z,20.28
2018-05-11T08:10:40.682Z,20.48
2018-05-11T08:12:16.993Z,20.26
2018-05-11T08:13:54.082Z,19.82
2018-05-11T08:15:30.972Z,19.94
2018-05-11T08:17:07.862Z,19.48
2018-05-11T08:18:44.214Z,19.08
2018-05-11T08:20:20.664Z,18.61
2018-05-11T08:21:56.987Z,17.92
2018-05-11T08:23:34.044Z,17.97
2018-05-11T08:25:10.407Z,18.56
2018-05-11T08:26:46.970Z,19.20
2018-05-11T08:28:23.137Z,19.47
2018-05-11T08:30:05.082Z,18.93
2018-05-11T08:31:41.893Z,18.90
2018-05-11T08:33:18.447Z,18.90
2018-05-11T08:34:54.739Z,18.87
2018-05-11T08:36:31.898Z,19.33
2018-05-11T08:38:08.451Z,19.25
2018-05-11T08:39:44.760Z,19.02
2018-05-11T08:41:21.987Z,19.16
2018-05-11T08:42:58.708Z,19.78
2018-05-11T08:44:36.212Z,19.86
2018-05-11T08:46:12.765Z,19.91
2018-05-11T08:47:49.054Z,19.46
2018-05-11T08:49:25.794Z,19.16
2018-05-11T08:51:02.150Z,18.98
2018-05-11T08:52:39.931Z,18.93
2018-05-11T08:54:16.256Z,19.26
2018-05-11T08:55:53.168Z,19.45
2018-05-11T08:57:29.565Z,20.17
2018-05-11T08:59:06.012Z,20.23
2018-05-11T09:00:43.507Z,20.37
2018-05-11T09:02:20.346Z,20.48
2018-05-11T09:03:56.722Z,20.42
2018-05-11T09:05:33.177Z,20.19
2018-05-11T09:07:09.575Z,19.99
2018-05-11T09:08:45.995Z,20.32
2018-05-11T09:10:22.386Z,19.17
2018-05-11T09:11:59.478Z,18.64
2018-05-11T09:13:36.657Z,18.82
2018-05-11T09:15:15.137Z,19.68
2018-05-11T09:16:51.565Z,20.13
2018-05-11T09:18:27.903Z,19.74
2018-05-11T09:20:05.055Z,20.10
2018-05-11T09:21:42.773Z,19.83
2018-05-11T09:23:19.171Z,19.22
2018-05-11T09:24:55.521Z,18.56
2018-05-11T09:26:31.931Z,18.30
2018-05-11T09:28:08.720Z,18.53
2018-05-11T09:29:45.127Z,18.75
2018-05-11T09:31:21.746Z,18.81
2018-05-11T09:32:58.215Z,19.28
2018-05-11T09:34:34.995Z,19.21
2018-05-11T09:37:42.302Z,19.23
2018-05-11T09:39:18.935Z,19.99
2018-05-11T09:40:55.549Z,20.09
2018-05-11T09:42:31.954Z,19.69
2018-05-11T09:44:08.371Z,19.21
2018-05-11T09:45:45.837Z,18.52
2018-05-11T09:47:23.253Z,18.16
2018-05-11T09:48:59.554Z,18.53
2018-05-11T09:50:37.327Z,19.06
2018-05-11T09:52:13.614Z,19.44
2018-05-11T09:53:50.329Z,19.66
2018-05-11T09:55:26.685Z,20.28
2018-05-11T09:57:02.909Z,20.46
2018-05-11T09:58:39.937Z,20.50
2018-05-11T10:00:22.278Z,20.54
2018-05-11T10:01:59.695Z,20.32
2018-05-11T10:03:36.952Z,20.16
2018-05-11T10:05:13.781Z,19.67
2018-05-11T10:06:50.115Z,19.56
2018-05-11T10:08:26.375Z,20.13
2018-05-11T10:10:02.688Z,20.54
2018-05-11T10:11:39.462Z,21.22
2018-05-11T10:13:15.782Z,20.80
2018-05-11T10:14:53.193Z,20.25
2018-05-11T10:16:29.998Z,19.97
2018-05-11T10:18:07.549Z,19.52
2018-05-11T10:19:43.986Z,19.52
2018-05-11T10:21:20.952Z,19.14
2018-05-11T10:22:57.438Z,19.41
2018-05-11T10:24:34.856Z,19.36
2018-05-11T10:26:11.339Z,20.03
2018-05-11T10:27:47.670Z,20.59
2018-05-11T10:29:24.306Z,21.04
2018-05-11T10:31:02.213Z,20.98
2018-05-11T10:32:38.731Z,21.40
2018-05-11T10:34:15.754Z,21.64
2018-05-11T10:35:52.833Z,21.85
2018-05-11T10:37:31.514Z,21.59
2018-05-11T10:39:08.529Z,21.51
2018-05-11T10:40:45.051Z,21.81
2018-05-11T10:42:21.391Z,22.18
2018-05-11T10:43:58.589Z,22.57
2018-05-11T10:45:35.334Z,22.41
2018-05-11T10:47:11.589Z,22.47
2018-05-11T10:48:48.366Z,22.85
2018-05-11T10:50:26.055Z,22.14
2018-05-11T10:52:02.402Z,21.65
2018-05-11T10:53:39.642Z,21.37
2018-05-11T10:55:16.026Z,20.65
2018-05-11T10:56:53.900Z,20.35
2018-05-11T10:58:32.143Z,20.41
2018-05-11T11:00:09.216Z,20.73
2018-05-11T11:01:47.625Z,21.07
2018-05-11T11:03:23.984Z,20.86
2018-05-11T11:05:00.237Z,20.84
2018-05-11T11:08:16.228Z,21.89
2018-05-11T11:09:52.566Z,22.23
2018-05-11T11:11:29.875Z,21.96
2018-05-11T11:13:07.110Z,21.74
2018-05-11T11:14:46.511Z,21.10
2018-05-11T11:16:24.175Z,20.94
2018-05-11T11:18:00.557Z,21.01
2018-05-11T11:21:09.136Z,21.14
2018-05-11T11:22:45.807Z,21.59
2018-05-11T11:24:22.154Z,22.17
2018-05-11T11:25:58.520Z,22.09
2018-05-11T11:27:35.340Z,21.46
2018-05-11T11:29:11.734Z,20.79
2018-05-11T11:30:48.410Z,20.56
2018-05-11T11:32:24.691Z,20.94
2018-05-11T11:34:01.419Z,21.37
2018-05-11T11:35:38.482Z,22.16
2018-05-11T11:37:14.711Z,22.55
2018-05-11T11:38:51.120Z,23.12
2018-05-11T11:40:27.996Z,22.88
2018-05-11T11:42:04.340Z,22.90
2018-05-11T11:43:40.577Z,22.97
2018-05-11T11:45:19.345Z,22.80
2018-05-11T11:46:56.687Z,22.75
2018-05-11T11:48:32.998Z,21.57
2018-05-11T11:50:10.055Z,21.20
2018-05-11T11:51:46.268Z,21.01
2018-05-11T11:53:22.962Z,20.89
2018-05-11T11:54:59.981Z,21.12
2018-05-11T11:56:36.237Z,21.79
2018-05-11T11:58:12.614Z,22.19
2018-05-11T11:59:49.412Z,21.88
2018-05-11T12:01:27.065Z,21.48
2018-05-11T12:03:05.204Z,21.04
2018-05-11T12:04:41.645Z,21.25
2018-05-11T12:06:24.872Z,21.82
2018-05-11T12:08:01.218Z,22.52
2018-05-11T12:09:37.530Z,22.61
2018-05-11T12:11:14.610Z,22.17
2018-05-11T12:12:51.161Z,21.71
2018-05-11T12:14:27.399Z,21.18
2018-05-11T12:16:04.489Z,21.36
2018-05-11T12:17:40.839Z,21.64
2018-05-11T12:19:17.657Z,21.59
2018-05-11T12:32:55.059Z,21.22
2018-05-11T12:34:31.343Z,21.52
2018-05-11T12:36:08.998Z,21.42
2018-05-11T12:37:45.817Z,21.15
2018-05-11T12:39:22.054Z,20.79
2018-05-11T12:40:59.166Z,20.74
2018-05-11T12:42:35.489Z,21.17
2018-05-11T12:44:13.094Z,21.90
2018-05-11T12:45:49.552Z,22.36
2018-05-11T12:47:26.600Z,22.37
2018-05-11T12:49:02.894Z,22.16
2018-05-11T12:50:39.567Z,21.57
2018-05-11T12:52:15.923Z,21.66
2018-05-11T12:53:52.280Z,22.09
2018-05-11T12:55:29.335Z,22.59
2018-05-11T12:57:07.549Z,23.07
2018-05-11T12:58:43.901Z,23.23
2018-05-11T13:00:20.247Z,23.04
2018-05-11T13:01:57.607Z,22.37
2018-05-11T13:03:35.155Z,22.12
2018-05-11T13:05:12.878Z,22.48
2018-05-11T13:06:49.251Z,22.88
2018-05-11T13:08:25.621Z,22.79
2018-05-11T13:10:03.299Z,22.77
2018-05-11T13:11:39.691Z,22.35
2018-05-11T13:13:16.018Z,22.20
2018-05-11T13:14:52.287Z,21.98
2018-05-11T13:16:28.709Z,21.82
2018-05-11T13:18:05.089Z,21.81
2018-05-11T13:19:42.198Z,21.73
2018-05-11T13:21:19.403Z,21.52
2018-05-11T13:22:55.718Z,21.48
2018-05-11T13:24:32.235Z,21.48
2018-05-11T13:26:09.167Z,21.37
2018-05-11T13:27:45.896Z,21.36
2018-05-11T13:29:22.319Z,21.33
2018-05-11T13:30:58.984Z,21.33
2018-05-11T13:32:35.250Z,21.34
2018-05-11T13:34:12.069Z,21.59
2018-05-11T13:35:49.565Z,21.73
2018-05-11T13:37:26.812Z,21.66
2018-05-11T13:39:03.058Z,21.88
2018-05-11T13:40:39.766Z,22.11
2018-05-11T13:42:16.071Z,22.21
2018-05-11T13:43:52.569Z,22.34
2018-05-11T13:45:29.713Z,22.25
2018-05-11T13:47:06.387Z,22.18
2018-05-11T13:48:42.780Z,22.19
2018-05-11T13:50:19.117Z,22.66
2018-05-11T13:51:55.412Z,23.11
2018-05-11T13:53:32.054Z,22.89
2018-05-11T13:55:08.582Z,22.68
2018-05-11T13:56:45.825Z,22.43
2018-05-11T13:58:22.631Z,21.91
2018-05-11T14:00:00.263Z,22.02
2018-05-11T14:01:37.077Z,22.27
2018-05-11T14:03:13.526Z,22.38
2018-05-11T14:04:50.007Z,22.25
2018-05-11T14:06:26.804Z,22.32
2018-05-11T14:08:03.249Z,22.13
2018-05-11T14:09:39.732Z,21.82
2018-05-11T14:11:16.077Z,21.94
2018-05-11T14:12:52.808Z,21.91
2018-05-11T14:14:29.067Z,22.03
2018-05-11T14:16:06.598Z,22.08
2018-05-11T14:17:42.905Z,21.98
2018-05-11T14:19:20.462Z,21.92
2018-05-11T14:20:56.865Z,22.15
2018-05-11T14:22:33.897Z,22.35
2018-05-11T14:24:10.887Z,22.07
2018-05-11T14:25:48.306Z,22.17
2018-05-11T14:27:24.684Z,22.15
2018-05-11T14:29:00.931Z,22.26
2018-05-11T14:30:37.477Z,22.49
2018-05-11T14:32:14.206Z,23.06
2018-05-11T14:33:51.388Z,22.94
2018-05-11T14:35:27.721Z,23.29
2018-05-11T14:37:04.101Z,23.13
2018-05-11T14:38:42.856Z,23.07
2018-05-11T14:40:19.301Z,22.95
2018-05-11T14:41:55.586Z,23.14
2018-05-11T14:43:32.043Z,23.74
2018-05-11T14:45:10.387Z,24.22
2018-05-11T14:46:47.222Z,24.43
2018-05-11T14:48:23.688Z,24.65
2018-05-11T14:50:00.217Z,24.84
2018-05-11T14:51:36.821Z,24.91
2018-05-11T14:53:13.291Z,24.36
2018-05-11T14:54:49.654Z,23.79
2018-05-11T14:56:26.589Z,23.27
2018-05-11T14:58:04.386Z,23.15
2018-05-11T14:59:40.777Z,23.01
2018-05-11T15:01:17.560Z,22.81
2018-05-11T15:02:53.825Z,22.94
2018-05-11T15:04:30.398Z,22.72
2018-05-11T15:06:06.915Z,22.45
2018-05-11T15:07:43.193Z,22.49
2018-05-11T15:09:19.761Z,22.43
2018-05-11T15:10:56.437Z,22.27
2018-05-11T15:12:33.623Z,22.25
2018-05-11T15:14:11.797Z,22.22
2018-05-11T15:15:48.338Z,22.22
2018-05-11T15:17:25.134Z,22.33
2018-05-11T15:19:02.460Z,22.43
2018-05-11T15:20:45.590Z,22.45
2018-05-11T15:22:21.931Z,22.63
2018-05-11T15:23:59.302Z,22.64
2018-05-11T15:25:43.421Z,22.46
2018-05-11T15:27:19.995Z,22.75
2018-05-11T15:28:56.353Z,23.12
2018-05-11T15:30:33.359Z,23.04
2018-05-11T15:32:12.422Z,23.04
2018-05-11T15:33:56.222Z,22.85
2018-05-11T15:35:32.579Z,22.61
2018-05-11T15:37:09.165Z,22.64
2018-05-11T15:38:46.363Z,22.57
2018-05-11T15:40:23.516Z,22.47
2018-05-11T15:41:59.920Z,22.29
2018-05-11T15:43:36.544Z,22.32
2018-05-11T15:45:15.532Z,22.23
2018-05-11T15:46:52.364Z,22.12
2018-05-11T15:48:29.043Z,22.00
2018-05-11T15:50:06.727Z,21.90
2018-05-11T15:51:43.503Z,21.92
2018-05-11T15:53:21.262Z,22.12
2018-05-11T15:54:58.235Z,22.25
2018-05-11T15:56:36.985Z,22.30
2018-05-11T15:58:13.951Z,22.48
2018-05-11T15:59:50.489Z,22.65
2018-05-11T16:01:26.994Z,22.66
2018-05-11T16:03:03.606Z,22.55
2018-05-11T16:04:39.932Z,22.58
2018-05-11T16:06:17.030Z,22.48
2018-05-11T16:07:54.278Z,22.64
2018-05-11T16:09:30.515Z,22.78
2018-05-11T16:11:06.867Z,22.93
2018-05-11T16:12:43.280Z,22.99
2018-05-11T16:14:20.460Z,22.87
2018-05-11T16:15:58.101Z,22.83
2018-05-11T16:17:34.756Z,23.06
2018-05-11T16:19:12.198Z,23.14
2018-05-11T16:20:50.805Z,22.97
2018-05-11T16:22:27.553Z,23.53
2018-05-11T16:24:04.882Z,23.04
2018-05-11T16:25:42.077Z,22.82
2018-05-11T16:27:18.471Z,22.88
2018-05-11T16:28:55.209Z,22.74
2018-05-11T16:30:32.471Z,22.43
2018-05-11T16:32:09.694Z,22.29
2018-05-11T16:33:46.819Z,22.29
2018-05-11T16:35:23.392Z,22.36
2018-05-11T16:37:01.070Z,22.30
2018-05-11T16:38:37.369Z,22.24
2018-05-11T16:40:13.705Z,22.19
2018-05-11T16:41:50.219Z,22.23
2018-05-11T16:43:27.315Z,22.19
2018-05-11T16:45:03.696Z,22.27
2018-05-11T16:46:40.603Z,22.54
2018-05-11T16:48:17.132Z,22.62
2018-05-11T16:49:53.527Z,22.60
2018-05-11T16:51:29.898Z,22.80
2018-05-11T16:53:06.635Z,22.69
2018-05-11T16:54:43.019Z,22.55
2018-05-11T16:56:19.322Z,22.40
2018-05-11T16:57:56.540Z,22.36
2018-05-11T16:59:32.834Z,22.35
2018-05-11T17:01:09.436Z,22.33
2018-05-11T17:02:46.532Z,22.55
2018-05-11T17:04:23.165Z,22.74
2018-05-11T17:05:59.452Z,22.72
2018-05-11T17:07:36.688Z,22.69
2018-05-11T17:09:14.153Z,22.67
2018-05-11T17:10:50.974Z,22.68
2018-05-11T17:12:27.517Z,22.50
2018-05-11T17:14:03.911Z,22.27
2018-05-11T17:15:41.554Z,22.31
2018-05-11T17:17:20.217Z,22.34
2018-05-11T17:18:57.615Z,22.27
2018-05-11T17:20:33.952Z,22.31
2018-05-11T17:22:11.186Z,22.23
2018-05-11T17:23:47.936Z,22.18
2018-05-11T17:25:24.273Z,22.14
2018-05-11T17:27:00.565Z,22.12
2018-05-11T17:28:37.177Z,22.14
2018-05-11T17:30:14.994Z,22.25
2018-05-11T17:31:51.696Z,22.27
2018-05-11T17:33:28.907Z,22.30
2018-05-11T17:35:05.643Z,22.19
2018-05-11T17:36:42.805Z,22.31
2018-05-11T17:38:19.150Z,22.36
2018-05-11T17:39:55.619Z,22.08
2018-05-11T17:41:32.434Z,22.09
2018-05-11T17:43:09.065Z,22.03
2018-05-11T17:44:45.562Z,22.01
2018-05-11T17:46:22.941Z,22.15
2018-05-11T17:48:02.611Z,22.12
2018-05-11T17:49:38.908Z,22.11
2018-05-11T17:51:15.172Z,22.06
2018-05-11T17:52:51.789Z,22.15
2018-05-11T17:54:28.165Z,22.19
2018-05-11T17:56:05.171Z,22.21
2018-05-11T17:57:41.591Z,22.28
2018-05-11T17:59:18.229Z,22.34
2018-05-11T18:00:55.166Z,22.43
2018-05-11T18:02:31.945Z,22.61
2018-05-11T18:04:08.534Z,22.91
2018-05-11T18:05:45.973Z,22.92
2018-05-11T18:07:22.399Z,22.56
2018-05-11T18:08:59.200Z,22.42
2018-05-11T18:10:35.546Z,22.27
2018-05-11T18:12:12.212Z,22.19
2018-05-11T18:13:48.628Z,21.99
2018-05-11T18:15:26.730Z,21.92
2018-05-11T18:17:03.086Z,21.91
2018-05-11T18:18:39.422Z,22.04
2018-05-11T18:20:15.940Z,22.24
2018-05-11T18:21:52.476Z,22.35
2018-05-11T18:23:28.932Z,22.41
2018-05-11T18:25:05.696Z,22.25
2018-05-11T18:26:42.094Z,22.17
2018-05-11T18:28:18.461Z,22.22
2018-05-11T18:29:54.829Z,22.21
2018-05-11T18:31:31.952Z,22.26
2018-05-11T18:33:08.489Z,22.20
2018-05-11T18:34:45.683Z,22.21
2018-05-11T18:36:26.437Z,21.98
2018-05-11T18:38:04.312Z,21.61
2018-05-11T18:39:40.900Z,21.27
2018-05-11T18:41:18.239Z,21.35
2018-05-11T18:42:54.745Z,21.28
2018-05-11T18:44:32.362Z,21.15
2018-05-11T18:46:09.194Z,21.02
2018-05-11T18:47:46.555Z,21.00
2018-05-11T18:49:23.820Z,20.73
2018-05-11T18:51:01.049Z,20.75
2018-05-11T18:52:37.559Z,20.73
2018-05-11T18:54:14.805Z,20.67
2018-05-11T18:55:52.155Z,20.50
2018-05-11T18:57:28.842Z,20.57
2018-05-11T18:59:05.292Z,20.47
2018-05-11T19:00:42.427Z,20.37
2018-05-11T19:02:19.164Z,20.49
2018-05-11T19:03:55.663Z,20.23
2018-05-11T19:05:31.987Z,20.10
2018-05-11T19:07:08.415Z,20.09
2018-05-11T19:08:47.093Z,19.88
2018-05-11T19:10:23.578Z,20.18
2018-05-11T19:12:00.008Z,19.94
2018-05-11T19:13:36.364Z,19.97
2018-05-11T19:15:12.928Z,20.04
2018-05-11T19:16:50.512Z,20.07
2018-05-11T19:18:30.417Z,20.14
2018-05-11T19:20:07.348Z,19.96
2018-05-11T19:21:43.923Z,19.94
2018-05-11T19:23:20.265Z,19.85
2018-05-11T19:24:56.655Z,19.76
2018-05-11T19:26:33.385Z,19.74
2018-05-11T19:28:10.514Z,19.80
2018-05-11T19:29:46.975Z,19.75
2018-05-11T19:31:23.543Z,19.66
2018-05-11T19:33:00.433Z,19.61
2018-05-11T19:34:36.799Z,19.70
2018-05-11T19:36:13.208Z,19.75
2018-05-11T19:37:49.673Z,19.72
2018-05-11T19:39:26.027Z,20.01
2018-05-11T19:41:02.512Z,19.94
2018-05-11T19:42:38.835Z,19.85
2018-05-11T19:44:16.413Z,19.79
2018-05-11T19:45:53.041Z,19.49
2018-05-11T19:47:29.395Z,19.41
2018-05-11T19:49:05.881Z,19.32
2018-05-11T19:50:42.803Z,19.47
2018-05-11T19:52:19.421Z,19.56
2018-05-11T19:53:55.873Z,19.59
2018-05-11T19:55:34.237Z,19.74
2018-05-11T19:57:11.843Z,19.93
2018-05-11T19:58:48.807Z,19.73
2018-05-11T20:00:29.155Z,19.55
2018-05-11T20:02:06.516Z,19.45
2018-05-11T20:03:42.794Z,19.40
2018-05-11T20:05:19.110Z,19.41
2018-05-11T20:06:55.491Z,19.32
2018-05-11T20:08:32.435Z,19.20
2018-05-11T20:10:09.143Z,19.24
2018-05-11T20:11:46.722Z,19.25
2018-05-11T20:13:25.130Z,19.34
2018-05-11T20:15:03.663Z,19.36
2018-05-11T20:16:40.147Z,19.31
2018-05-11T20:18:16.717Z,19.38
2018-05-11T20:19:53.888Z,19.35
2018-05-11T20:21:30.730Z,19.29
2018-05-11T20:23:07.138Z,19.25
2018-05-11T20:24:44.406Z,19.41
2018-05-11T20:26:20.975Z,19.49
2018-05-11T20:27:57.937Z,19.46
2018-05-11T20:29:34.424Z,19.35
2018-05-11T20:31:11.031Z,19.32
2018-05-11T20:32:47.540Z,19.45
2018-05-11T20:34:24.309Z,19.54
2018-05-11T20:36:00.772Z,19.52
2018-05-11T20:37:37.322Z,19.63
2018-05-11T20:39:13.687Z,19.47
2018-05-11T20:40:50.446Z,19.40
2018-05-11T20:42:26.886Z,19.64
2018-05-11T20:44:04.002Z,19.50
2018-05-11T20:45:40.645Z,19.74
2018-05-11T20:47:17.442Z,19.80
2018-05-11T20:48:53.850Z,19.65
2018-05-11T20:50:30.476Z,19.47
2018-05-11T20:52:06.839Z,19.43
2018-05-11T20:53:43.683Z,19.47
2018-05-11T20:55:20.570Z,19.30
2018-05-11T20:56:56.966Z,19.20
2018-05-11T20:58:34.270Z,19.29
2018-05-11T21:00:10.962Z,19.40
2018-05-11T21:01:47.529Z,19.59
2018-05-11T21:03:23.838Z,19.48
2018-05-11T21:05:00.369Z,19.54
2018-05-11T21:06:37.238Z,19.37
2018-05-11T21:08:13.831Z,19.27
2018-05-11T21:09:50.132Z,19.31
2018-05-11T21:11:26.689Z,19.28
2018-05-11T21:13:03.426Z,19.24
2018-05-11T21:14:39.814Z,19.16
2018-05-11T21:16:18.023Z,19.31
2018-05-11T21:17:54.381Z,19.28
2018-05-11T21:19:31.368Z,19.24
2018-05-11T21:21:08.502Z,19.32
2018-05-11T21:22:44.870Z,19.20
2018-05-11T21:24:22.245Z,19.24
2018-05-11T21:25:59.065Z,19.24
2018-05-11T21:27:36.140Z,19.21